sensor_id;sensor_type;location;lat;lon;timestamp;P1;durP1;ratioP1;P2;durP2;ratioP2
79015;SDS011;72726;44.842;37.556;2023-09-19T00:00:37;10.38;;;4.15;;
79015;SDS011;72726;44.842;37.556;2023-09-19T00:01:41;7.40;;;3.95;;
79015;SDS011;72726;44.842;37.556;2023-09-19T00:02:42;8.10;;;4.20;;
79015;SDS011;72726;44.842;37.556;2023-09-19T00:03:47;10.50;;;3.78;;
79015;SDS011;72726;44.842;37.556;2023-09-19T00:04:49;9.57;;;3.95;;
79015;SDS011;72726;44.842;37.556;2023-09-19T00:05:50;9.88;;;4.70;;
79015;SDS011;72726;44.842;37.556;2023-09-19T00:06:51;7.82;;;4.22;;
79015;SDS011;72726;44.842;37.556;2023-09-19T00:07:55;9.48;;;4.60;;
79015;SDS011;72726;44.842;37.556;2023-09-19T00:08:59;9.13;;;4.57;;
79015;SDS011;72726;44.842;37.556;2023-09-19T00:10:00;8.27;;;3.95;;
79015;SDS011;72726;44.842;37.556;2023-09-19T00:11:02;9.98;;;4.15;;
79015;SDS011;72726;44.842;37.556;2023-09-19T00:12:06;9.68;;;4.00;;
79015;SDS011;72726;44.842;37.556;2023-09-19T00:13:09;7.65;;;3.65;;
79015;SDS011;72726;44.842;37.556;2023-09-19T00:14:13;9.32;;;4.80;;
79015;SDS011;72726;44.842;37.556;2023-09-19T00:15:15;9.95;;;3.95;;
79015;SDS011;72726;44.842;37.556;2023-09-19T00:16:18;10.77;;;4.45;;
79015;SDS011;72726;44.842;37.556;2023-09-19T00:17:19;17.55;;;4.60;;
79015;SDS011;72726;44.842;37.556;2023-09-19T00:18:21;9.55;;;4.57;;
79015;SDS011;72726;44.842;37.556;2023-09-19T00:19:23;10.25;;;4.75;;
79015;SDS011;72726;44.842;37.556;2023-09-19T00:20:24;14.68;;;4.35;;
79015;SDS011;72726;44.842;37.556;2023-09-19T00:21:25;10.52;;;3.90;;
79015;SDS011;72726;44.842;37.556;2023-09-19T00:22:27;9.82;;;4.30;;
79015;SDS011;72726;44.842;37.556;2023-09-19T00:23:28;10.98;;;4.50;;
79015;SDS011;72726;44.842;37.556;2023-09-19T00:24:30;7.18;;;3.83;;
79015;SDS011;72726;44.842;37.556;2023-09-19T00:25:36;8.38;;;3.78;;
79015;SDS011;72726;44.842;37.556;2023-09-19T00:26:40;11.07;;;4.32;;
79015;SDS011;72726;44.842;37.556;2023-09-19T00:27:41;7.45;;;4.00;;
79015;SDS011;72726;44.842;37.556;2023-09-19T00:28:42;9.50;;;4.45;;
79015;SDS011;72726;44.842;37.556;2023-09-19T00:29:44;8.23;;;4.10;;
79015;SDS011;72726;44.842;37.556;2023-09-19T00:30:45;8.48;;;4.07;;
79015;SDS011;72726;44.842;37.556;2023-09-19T00:31:55;10.55;;;4.50;;
79015;SDS011;72726;44.842;37.556;2023-09-19T00:32:57;8.00;;;3.90;;
79015;SDS011;72726;44.842;37.556;2023-09-19T00:33:59;9.68;;;4.50;;
79015;SDS011;72726;44.842;37.556;2023-09-19T00:35:07;6.90;;;3.75;;
79015;SDS011;72726;44.842;37.556;2023-09-19T00:36:10;8.68;;;3.67;;
79015;SDS011;72726;44.842;37.556;2023-09-19T00:37:11;8.52;;;3.95;;
79015;SDS011;72726;44.842;37.556;2023-09-19T00:38:13;9.70;;;4.50;;
79015;SDS011;72726;44.842;37.556;2023-09-19T00:39:16;9.30;;;4.10;;
79015;SDS011;72726;44.842;37.556;2023-09-19T00:40:17;10.27;;;4.68;;
79015;SDS011;72726;44.842;37.556;2023-09-19T00:41:19;8.32;;;4.43;;
79015;SDS011;72726;44.842;37.556;2023-09-19T00:42:22;11.00;;;4.60;;
79015;SDS011;72726;44.842;37.556;2023-09-19T00:43:23;9.52;;;4.80;;
79015;SDS011;72726;44.842;37.556;2023-09-19T00:44:25;9.38;;;4.57;;
79015;SDS011;72726;44.842;37.556;2023-09-19T00:45:26;10.35;;;4.80;;
79015;SDS011;72726;44.842;37.556;2023-09-19T00:46:29;10.40;;;4.85;;
79015;SDS011;72726;44.842;37.556;2023-09-19T00:47:33;9.77;;;4.40;;
79015;SDS011;72726;44.842;37.556;2023-09-19T00:48:39;9.65;;;4.30;;
79015;SDS011;72726;44.842;37.556;2023-09-19T00:49:44;10.93;;;4.80;;
79015;SDS011;72726;44.842;37.556;2023-09-19T00:50:53;8.77;;;4.20;;
79015;SDS011;72726;44.842;37.556;2023-09-19T00:51:55;11.02;;;4.78;;
79015;SDS011;72726;44.842;37.556;2023-09-19T00:52:59;10.68;;;4.75;;
79015;SDS011;72726;44.842;37.556;2023-09-19T00:54:01;8.13;;;4.00;;
79015;SDS011;72726;44.842;37.556;2023-09-19T00:55:06;8.48;;;3.80;;
79015;SDS011;72726;44.842;37.556;2023-09-19T00:56:12;9.50;;;3.83;;
79015;SDS011;72726;44.842;37.556;2023-09-19T00:57:21;9.45;;;4.72;;
79015;SDS011;72726;44.842;37.556;2023-09-19T00:58:23;10.25;;;4.38;;
79015;SDS011;72726;44.842;37.556;2023-09-19T00:59:25;10.40;;;4.10;;
79015;SDS011;72726;44.842;37.556;2023-09-19T01:00:26;8.63;;;4.25;;
79015;SDS011;72726;44.842;37.556;2023-09-19T01:01:28;9.43;;;4.05;;
79015;SDS011;72726;44.842;37.556;2023-09-19T01:02:29;12.55;;;4.30;;
79015;SDS011;72726;44.842;37.556;2023-09-19T01:03:33;9.13;;;4.40;;
79015;SDS011;72726;44.842;37.556;2023-09-19T01:04:34;8.52;;;3.72;;
79015;SDS011;72726;44.842;37.556;2023-09-19T01:05:36;8.25;;;4.00;;
79015;SDS011;72726;44.842;37.556;2023-09-19T01:06:38;11.10;;;3.90;;
79015;SDS011;72726;44.842;37.556;2023-09-19T01:07:41;6.95;;;3.83;;
79015;SDS011;72726;44.842;37.556;2023-09-19T01:08:43;7.45;;;3.45;;
79015;SDS011;72726;44.842;37.556;2023-09-19T01:09:44;8.43;;;3.95;;
79015;SDS011;72726;44.842;37.556;2023-09-19T01:10:52;8.60;;;3.78;;
79015;SDS011;72726;44.842;37.556;2023-09-19T01:12:17;9.40;;;4.18;;
79015;SDS011;72726;44.842;37.556;2023-09-19T01:13:47;13.15;;;4.25;;
79015;SDS011;72726;44.842;37.556;2023-09-19T01:15:04;7.78;;;3.97;;
79015;SDS011;72726;44.842;37.556;2023-09-19T01:17:50;9.93;;;4.13;;
79015;SDS011;72726;44.842;37.556;2023-09-19T01:19:05;9.35;;;4.03;;
79015;SDS011;72726;44.842;37.556;2023-09-19T01:20:37;8.75;;;4.22;;
79015;SDS011;72726;44.842;37.556;2023-09-19T01:21:53;11.15;;;4.22;;
79015;SDS011;72726;44.842;37.556;2023-09-19T01:23:20;8.20;;;4.40;;
79015;SDS011;72726;44.842;37.556;2023-09-19T01:30:39;7.95;;;4.10;;
79015;SDS011;72726;44.842;37.556;2023-09-19T01:31:44;10.05;;;4.13;;
79015;SDS011;72726;44.842;37.556;2023-09-19T01:32:46;8.95;;;4.25;;
79015;SDS011;72726;44.842;37.556;2023-09-19T01:34:00;13.77;;;4.32;;
79015;SDS011;72726;44.842;37.556;2023-09-19T01:35:05;9.75;;;4.05;;
79015;SDS011;72726;44.842;37.556;2023-09-19T01:36:06;7.53;;;3.95;;
79015;SDS011;72726;44.842;37.556;2023-09-19T01:37:10;9.43;;;3.97;;
79015;SDS011;72726;44.842;37.556;2023-09-19T01:38:11;8.18;;;3.97;;
79015;SDS011;72726;44.842;37.556;2023-09-19T01:39:14;11.25;;;4.43;;
79015;SDS011;72726;44.842;37.556;2023-09-19T01:40:17;9.80;;;4.18;;
79015;SDS011;72726;44.842;37.556;2023-09-19T01:41:25;9.38;;;4.55;;
79015;SDS011;72726;44.842;37.556;2023-09-19T01:43:46;7.80;;;4.20;;
79015;SDS011;72726;44.842;37.556;2023-09-19T01:46:16;9.02;;;4.10;;
79015;SDS011;72726;44.842;37.556;2023-09-19T01:47:37;10.57;;;4.10;;
79015;SDS011;72726;44.842;37.556;2023-09-19T01:51:11;7.35;;;4.03;;
79015;SDS011;72726;44.842;37.556;2023-09-19T01:52:21;9.57;;;4.35;;
79015;SDS011;72726;44.842;37.556;2023-09-19T01:54:56;9.25;;;4.22;;
79015;SDS011;72726;44.842;37.556;2023-09-19T01:56:08;10.88;;;4.00;;
79015;SDS011;72726;44.842;37.556;2023-09-19T01:57:16;9.90;;;4.40;;
79015;SDS011;72726;44.842;37.556;2023-09-19T01:58:48;9.77;;;4.25;;
79015;SDS011;72726;44.842;37.556;2023-09-19T01:59:53;9.23;;;4.43;;
79015;SDS011;72726;44.842;37.556;2023-09-19T02:01:00;9.30;;;4.35;;
79015;SDS011;72726;44.842;37.556;2023-09-19T02:02:03;15.13;;;4.55;;
79015;SDS011;72726;44.842;37.556;2023-09-19T02:03:06;9.82;;;4.28;;
79015;SDS011;72726;44.842;37.556;2023-09-19T02:04:09;9.40;;;4.18;;
79015;SDS011;72726;44.842;37.556;2023-09-19T02:05:11;7.57;;;4.35;;
79015;SDS011;72726;44.842;37.556;2023-09-19T02:06:14;7.53;;;3.65;;
79015;SDS011;72726;44.842;37.556;2023-09-19T02:07:16;11.52;;;4.43;;
79015;SDS011;72726;44.842;37.556;2023-09-19T02:08:18;8.88;;;4.80;;
79015;SDS011;72726;44.842;37.556;2023-09-19T02:09:20;13.02;;;4.32;;
79015;SDS011;72726;44.842;37.556;2023-09-19T02:10:22;13.60;;;4.97;;
79015;SDS011;72726;44.842;37.556;2023-09-19T02:11:24;9.38;;;4.22;;
79015;SDS011;72726;44.842;37.556;2023-09-19T02:12:26;11.40;;;4.63;;
79015;SDS011;72726;44.842;37.556;2023-09-19T02:13:28;8.93;;;4.07;;
79015;SDS011;72726;44.842;37.556;2023-09-19T02:14:31;7.43;;;3.85;;
79015;SDS011;72726;44.842;37.556;2023-09-19T02:15:33;7.82;;;4.20;;
79015;SDS011;72726;44.842;37.556;2023-09-19T02:16:35;11.60;;;4.50;;
79015;SDS011;72726;44.842;37.556;2023-09-19T02:17:36;8.93;;;3.80;;
79015;SDS011;72726;44.842;37.556;2023-09-19T02:18:39;8.93;;;4.55;;
79015;SDS011;72726;44.842;37.556;2023-09-19T02:19:41;9.50;;;4.15;;
79015;SDS011;72726;44.842;37.556;2023-09-19T02:20:42;8.68;;;4.10;;
79015;SDS011;72726;44.842;37.556;2023-09-19T02:21:44;10.25;;;4.38;;
79015;SDS011;72726;44.842;37.556;2023-09-19T02:22:45;9.55;;;4.57;;
79015;SDS011;72726;44.842;37.556;2023-09-19T02:23:46;9.20;;;4.07;;
79015;SDS011;72726;44.842;37.556;2023-09-19T02:24:48;9.00;;;4.28;;
79015;SDS011;72726;44.842;37.556;2023-09-19T02:25:53;9.07;;;4.85;;
79015;SDS011;72726;44.842;37.556;2023-09-19T02:26:56;9.38;;;4.70;;
79015;SDS011;72726;44.842;37.556;2023-09-19T02:27:58;10.27;;;5.13;;
79015;SDS011;72726;44.842;37.556;2023-09-19T02:29:04;10.27;;;4.57;;
79015;SDS011;72726;44.842;37.556;2023-09-19T02:30:05;9.50;;;3.70;;
79015;SDS011;72726;44.842;37.556;2023-09-19T02:31:07;9.38;;;4.68;;
79015;SDS011;72726;44.842;37.556;2023-09-19T02:32:09;7.93;;;4.00;;
79015;SDS011;72726;44.842;37.556;2023-09-19T02:33:10;10.90;;;4.72;;
79015;SDS011;72726;44.842;37.556;2023-09-19T02:34:12;9.85;;;4.38;;
79015;SDS011;72726;44.842;37.556;2023-09-19T02:35:13;8.23;;;4.43;;
79015;SDS011;72726;44.842;37.556;2023-09-19T02:36:15;8.90;;;3.95;;
79015;SDS011;72726;44.842;37.556;2023-09-19T02:37:18;8.57;;;4.20;;
79015;SDS011;72726;44.842;37.556;2023-09-19T02:38:20;10.18;;;4.60;;
79015;SDS011;72726;44.842;37.556;2023-09-19T02:39:25;9.60;;;4.78;;
79015;SDS011;72726;44.842;37.556;2023-09-19T02:40:27;10.70;;;4.75;;
79015;SDS011;72726;44.842;37.556;2023-09-19T02:41:28;13.80;;;4.43;;
79015;SDS011;72726;44.842;37.556;2023-09-19T02:42:30;8.32;;;3.70;;
79015;SDS011;72726;44.842;37.556;2023-09-19T02:43:31;14.65;;;4.03;;
79015;SDS011;72726;44.842;37.556;2023-09-19T02:44:33;9.80;;;4.35;;
79015;SDS011;72726;44.842;37.556;2023-09-19T02:45:35;7.47;;;4.20;;
79015;SDS011;72726;44.842;37.556;2023-09-19T02:46:36;10.45;;;4.22;;
79015;SDS011;72726;44.842;37.556;2023-09-19T02:47:39;9.77;;;4.22;;
79015;SDS011;72726;44.842;37.556;2023-09-19T02:48:41;8.13;;;3.88;;
79015;SDS011;72726;44.842;37.556;2023-09-19T02:49:42;7.28;;;4.22;;
79015;SDS011;72726;44.842;37.556;2023-09-19T02:50:45;10.52;;;4.10;;
79015;SDS011;72726;44.842;37.556;2023-09-19T02:51:55;8.15;;;3.90;;
79015;SDS011;72726;44.842;37.556;2023-09-19T02:52:59;8.90;;;3.92;;
79015;SDS011;72726;44.842;37.556;2023-09-19T02:54:01;8.98;;;4.15;;
79015;SDS011;72726;44.842;37.556;2023-09-19T02:55:04;8.32;;;3.88;;
79015;SDS011;72726;44.842;37.556;2023-09-19T02:56:10;7.50;;;3.60;;
79015;SDS011;72726;44.842;37.556;2023-09-19T02:57:14;9.23;;;4.30;;
79015;SDS011;72726;44.842;37.556;2023-09-19T02:58:18;8.38;;;3.95;;
79015;SDS011;72726;44.842;37.556;2023-09-19T02:59:20;6.97;;;3.42;;
79015;SDS011;72726;44.842;37.556;2023-09-19T03:00:22;7.38;;;4.00;;
79015;SDS011;72726;44.842;37.556;2023-09-19T03:01:24;9.43;;;3.97;;
79015;SDS011;72726;44.842;37.556;2023-09-19T03:02:26;7.97;;;4.03;;
79015;SDS011;72726;44.842;37.556;2023-09-19T03:03:28;12.38;;;3.70;;
79015;SDS011;72726;44.842;37.556;2023-09-19T03:04:30;11.07;;;3.88;;
79015;SDS011;72726;44.842;37.556;2023-09-19T03:05:31;6.90;;;3.33;;
79015;SDS011;72726;44.842;37.556;2023-09-19T03:06:34;12.95;;;4.07;;
79015;SDS011;72726;44.842;37.556;2023-09-19T03:07:37;7.95;;;3.80;;
79015;SDS011;72726;44.842;37.556;2023-09-19T03:08:39;7.07;;;3.42;;
79015;SDS011;72726;44.842;37.556;2023-09-19T03:09:40;8.45;;;3.60;;
79015;SDS011;72726;44.842;37.556;2023-09-19T03:10:45;7.63;;;3.70;;
79015;SDS011;72726;44.842;37.556;2023-09-19T03:11:47;9.05;;;4.18;;
79015;SDS011;72726;44.842;37.556;2023-09-19T03:12:49;8.15;;;3.85;;
79015;SDS011;72726;44.842;37.556;2023-09-19T03:13:52;8.23;;;3.67;;
79015;SDS011;72726;44.842;37.556;2023-09-19T03:14:55;9.40;;;4.18;;
79015;SDS011;72726;44.842;37.556;2023-09-19T03:15:56;8.35;;;4.25;;
79015;SDS011;72726;44.842;37.556;2023-09-19T03:17:01;8.55;;;3.78;;
79015;SDS011;72726;44.842;37.556;2023-09-19T03:18:05;7.78;;;3.78;;
79015;SDS011;72726;44.842;37.556;2023-09-19T03:19:08;9.02;;;4.00;;
79015;SDS011;72726;44.842;37.556;2023-09-19T03:20:12;8.52;;;4.32;;
79015;SDS011;72726;44.842;37.556;2023-09-19T03:21:18;12.02;;;4.45;;
79015;SDS011;72726;44.842;37.556;2023-09-19T03:22:20;10.10;;;4.43;;
79015;SDS011;72726;44.842;37.556;2023-09-19T03:23:22;10.60;;;4.22;;
79015;SDS011;72726;44.842;37.556;2023-09-19T03:24:24;9.15;;;4.28;;
79015;SDS011;72726;44.842;37.556;2023-09-19T03:25:25;8.02;;;3.92;;
79015;SDS011;72726;44.842;37.556;2023-09-19T03:26:27;8.80;;;4.15;;
79015;SDS011;72726;44.842;37.556;2023-09-19T03:27:28;11.57;;;5.15;;
79015;SDS011;72726;44.842;37.556;2023-09-19T03:28:29;11.75;;;4.80;;
79015;SDS011;72726;44.842;37.556;2023-09-19T03:29:34;14.40;;;4.50;;
79015;SDS011;72726;44.842;37.556;2023-09-19T03:30:36;8.95;;;4.35;;
79015;SDS011;72726;44.842;37.556;2023-09-19T03:31:39;8.85;;;4.00;;
79015;SDS011;72726;44.842;37.556;2023-09-19T03:32:46;11.00;;;4.78;;
79015;SDS011;72726;44.842;37.556;2023-09-19T03:33:48;10.20;;;4.63;;
79015;SDS011;72726;44.842;37.556;2023-09-19T03:34:50;9.70;;;4.40;;
79015;SDS011;72726;44.842;37.556;2023-09-19T03:35:52;20.02;;;5.10;;
79015;SDS011;72726;44.842;37.556;2023-09-19T03:36:54;9.75;;;4.63;;
79015;SDS011;72726;44.842;37.556;2023-09-19T03:37:56;10.35;;;4.90;;
79015;SDS011;72726;44.842;37.556;2023-09-19T03:38:58;10.35;;;4.70;;
79015;SDS011;72726;44.842;37.556;2023-09-19T03:40:01;9.00;;;4.25;;
79015;SDS011;72726;44.842;37.556;2023-09-19T03:41:06;9.55;;;4.32;;
79015;SDS011;72726;44.842;37.556;2023-09-19T03:42:10;9.13;;;4.40;;
79015;SDS011;72726;44.842;37.556;2023-09-19T03:43:11;10.32;;;4.82;;
79015;SDS011;72726;44.842;37.556;2023-09-19T03:44:13;11.00;;;4.20;;
79015;SDS011;72726;44.842;37.556;2023-09-19T03:45:16;10.93;;;4.72;;
79015;SDS011;72726;44.842;37.556;2023-09-19T03:46:22;12.93;;;4.90;;
79015;SDS011;72726;44.842;37.556;2023-09-19T03:47:24;10.13;;;4.47;;
79015;SDS011;72726;44.842;37.556;2023-09-19T03:48:26;11.60;;;5.13;;
79015;SDS011;72726;44.842;37.556;2023-09-19T03:49:28;9.88;;;4.80;;
79015;SDS011;72726;44.842;37.556;2023-09-19T03:50:31;10.70;;;4.60;;
79015;SDS011;72726;44.842;37.556;2023-09-19T03:51:34;10.35;;;4.47;;
79015;SDS011;72726;44.842;37.556;2023-09-19T03:52:35;10.15;;;4.68;;
79015;SDS011;72726;44.842;37.556;2023-09-19T03:53:37;10.60;;;4.80;;
79015;SDS011;72726;44.842;37.556;2023-09-19T03:54:38;11.20;;;4.60;;
79015;SDS011;72726;44.842;37.556;2023-09-19T03:55:44;12.00;;;4.05;;
79015;SDS011;72726;44.842;37.556;2023-09-19T03:56:46;9.20;;;4.32;;
79015;SDS011;72726;44.842;37.556;2023-09-19T03:57:47;10.13;;;4.68;;
79015;SDS011;72726;44.842;37.556;2023-09-19T03:58:50;11.20;;;4.85;;
79015;SDS011;72726;44.842;37.556;2023-09-19T03:59:51;9.25;;;4.75;;
79015;SDS011;72726;44.842;37.556;2023-09-19T04:00:57;9.25;;;4.65;;
79015;SDS011;72726;44.842;37.556;2023-09-19T04:02:02;8.23;;;4.03;;
79015;SDS011;72726;44.842;37.556;2023-09-19T04:03:04;13.18;;;4.93;;
79015;SDS011;72726;44.842;37.556;2023-09-19T04:04:07;8.38;;;4.32;;
79015;SDS011;72726;44.842;37.556;2023-09-19T04:05:10;8.48;;;4.10;;
79015;SDS011;72726;44.842;37.556;2023-09-19T04:06:12;9.95;;;4.68;;
79015;SDS011;72726;44.842;37.556;2023-09-19T04:07:18;11.07;;;4.78;;
79015;SDS011;72726;44.842;37.556;2023-09-19T04:08:23;10.68;;;4.65;;
79015;SDS011;72726;44.842;37.556;2023-09-19T04:09:24;8.95;;;4.43;;
79015;SDS011;72726;44.842;37.556;2023-09-19T04:10:27;7.97;;;4.03;;
79015;SDS011;72726;44.842;37.556;2023-09-19T04:11:29;14.07;;;4.88;;
79015;SDS011;72726;44.842;37.556;2023-09-19T04:12:31;9.45;;;4.38;;
79015;SDS011;72726;44.842;37.556;2023-09-19T04:13:33;9.43;;;4.40;;
79015;SDS011;72726;44.842;37.556;2023-09-19T04:14:34;9.45;;;3.97;;
79015;SDS011;72726;44.842;37.556;2023-09-19T04:15:36;7.00;;;3.88;;
79015;SDS011;72726;44.842;37.556;2023-09-19T04:16:38;10.80;;;4.63;;
79015;SDS011;72726;44.842;37.556;2023-09-19T04:17:40;11.63;;;4.43;;
79015;SDS011;72726;44.842;37.556;2023-09-19T04:18:42;7.85;;;3.58;;
79015;SDS011;72726;44.842;37.556;2023-09-19T04:19:44;9.82;;;4.53;;
79015;SDS011;72726;44.842;37.556;2023-09-19T04:20:49;11.25;;;4.63;;
79015;SDS011;72726;44.842;37.556;2023-09-19T04:21:51;9.20;;;3.90;;
79015;SDS011;72726;44.842;37.556;2023-09-19T04:22:53;8.93;;;4.55;;
79015;SDS011;72726;44.842;37.556;2023-09-19T04:23:55;10.15;;;5.10;;
79015;SDS011;72726;44.842;37.556;2023-09-19T04:24:57;8.93;;;4.63;;
79015;SDS011;72726;44.842;37.556;2023-09-19T04:25:58;8.55;;;4.78;;
79015;SDS011;72726;44.842;37.556;2023-09-19T04:27:00;8.13;;;4.30;;
79015;SDS011;72726;44.842;37.556;2023-09-19T04:28:02;8.48;;;3.95;;
79015;SDS011;72726;44.842;37.556;2023-09-19T04:29:05;9.43;;;4.68;;
79015;SDS011;72726;44.842;37.556;2023-09-19T04:30:07;7.50;;;4.00;;
79015;SDS011;72726;44.842;37.556;2023-09-19T04:31:12;9.82;;;3.88;;
79015;SDS011;72726;44.842;37.556;2023-09-19T04:32:15;10.98;;;4.32;;
79015;SDS011;72726;44.842;37.556;2023-09-19T04:33:18;8.82;;;4.70;;
79015;SDS011;72726;44.842;37.556;2023-09-19T04:34:19;9.18;;;4.18;;
79015;SDS011;72726;44.842;37.556;2023-09-19T04:35:21;8.45;;;4.25;;
79015;SDS011;72726;44.842;37.556;2023-09-19T04:36:22;7.18;;;4.25;;
79015;SDS011;72726;44.842;37.556;2023-09-19T04:37:24;11.50;;;4.13;;
79015;SDS011;72726;44.842;37.556;2023-09-19T04:38:25;9.85;;;4.68;;
79015;SDS011;72726;44.842;37.556;2023-09-19T04:39:27;10.68;;;4.75;;
79015;SDS011;72726;44.842;37.556;2023-09-19T04:40:29;9.50;;;4.43;;
79015;SDS011;72726;44.842;37.556;2023-09-19T04:41:30;8.35;;;4.15;;
79015;SDS011;72726;44.842;37.556;2023-09-19T04:42:31;10.25;;;4.07;;
79015;SDS011;72726;44.842;37.556;2023-09-19T04:43:33;7.40;;;3.88;;
79015;SDS011;72726;44.842;37.556;2023-09-19T04:44:34;10.55;;;3.95;;
79015;SDS011;72726;44.842;37.556;2023-09-19T04:45:35;8.30;;;3.72;;
79015;SDS011;72726;44.842;37.556;2023-09-19T04:46:38;9.05;;;4.10;;
79015;SDS011;72726;44.842;37.556;2023-09-19T04:47:40;8.07;;;3.80;;
79015;SDS011;72726;44.842;37.556;2023-09-19T04:48:41;8.52;;;3.90;;
79015;SDS011;72726;44.842;37.556;2023-09-19T04:49:42;10.77;;;4.35;;
79015;SDS011;72726;44.842;37.556;2023-09-19T04:50:43;9.82;;;3.97;;
79015;SDS011;72726;44.842;37.556;2023-09-19T04:51:44;6.95;;;3.70;;
79015;SDS011;72726;44.842;37.556;2023-09-19T04:52:50;10.90;;;4.00;;
79015;SDS011;72726;44.842;37.556;2023-09-19T04:53:51;7.60;;;3.90;;
79015;SDS011;72726;44.842;37.556;2023-09-19T04:54:52;9.32;;;4.13;;
79015;SDS011;72726;44.842;37.556;2023-09-19T04:55:54;8.73;;;3.92;;
79015;SDS011;72726;44.842;37.556;2023-09-19T04:56:56;7.93;;;4.03;;
79015;SDS011;72726;44.842;37.556;2023-09-19T04:57:57;7.45;;;4.25;;
79015;SDS011;72726;44.842;37.556;2023-09-19T04:58:58;8.00;;;3.53;;
79015;SDS011;72726;44.842;37.556;2023-09-19T05:00:00;7.93;;;3.95;;
79015;SDS011;72726;44.842;37.556;2023-09-19T05:01:03;7.78;;;3.42;;
79015;SDS011;72726;44.842;37.556;2023-09-19T05:02:04;8.13;;;3.40;;
79015;SDS011;72726;44.842;37.556;2023-09-19T05:03:06;7.60;;;3.67;;
79015;SDS011;72726;44.842;37.556;2023-09-19T05:04:09;9.30;;;3.63;;
79015;SDS011;72726;44.842;37.556;2023-09-19T05:05:10;8.77;;;3.97;;
79015;SDS011;72726;44.842;37.556;2023-09-19T05:06:12;6.88;;;3.42;;
79015;SDS011;72726;44.842;37.556;2023-09-19T05:07:14;10.27;;;3.40;;
79015;SDS011;72726;44.842;37.556;2023-09-19T05:08:15;12.52;;;3.63;;
79015;SDS011;72726;44.842;37.556;2023-09-19T05:09:16;6.68;;;3.55;;
79015;SDS011;72726;44.842;37.556;2023-09-19T05:10:20;7.07;;;3.78;;
79015;SDS011;72726;44.842;37.556;2023-09-19T05:11:22;8.07;;;4.05;;
79015;SDS011;72726;44.842;37.556;2023-09-19T05:12:23;9.35;;;3.88;;
79015;SDS011;72726;44.842;37.556;2023-09-19T05:13:28;6.97;;;3.80;;
79015;SDS011;72726;44.842;37.556;2023-09-19T05:14:29;7.25;;;3.38;;
79015;SDS011;72726;44.842;37.556;2023-09-19T05:15:30;6.53;;;3.33;;
79015;SDS011;72726;44.842;37.556;2023-09-19T05:16:31;7.57;;;3.00;;
79015;SDS011;72726;44.842;37.556;2023-09-19T05:17:33;6.00;;;3.10;;
79015;SDS011;72726;44.842;37.556;2023-09-19T05:18:35;8.65;;;3.22;;
79015;SDS011;72726;44.842;37.556;2023-09-19T05:19:36;7.10;;;3.42;;
79015;SDS011;72726;44.842;37.556;2023-09-19T05:20:39;7.93;;;3.47;;
79015;SDS011;72726;44.842;37.556;2023-09-19T05:21:40;6.28;;;2.78;;
79015;SDS011;72726;44.842;37.556;2023-09-19T05:22:42;8.38;;;3.30;;
79015;SDS011;72726;44.842;37.556;2023-09-19T05:23:43;6.95;;;2.85;;
79015;SDS011;72726;44.842;37.556;2023-09-19T05:24:45;8.95;;;3.10;;
79015;SDS011;72726;44.842;37.556;2023-09-19T05:25:48;6.03;;;3.45;;
79015;SDS011;72726;44.842;37.556;2023-09-19T05:26:50;9.23;;;4.00;;
79015;SDS011;72726;44.842;37.556;2023-09-19T05:27:53;10.10;;;3.80;;
79015;SDS011;72726;44.842;37.556;2023-09-19T05:28:54;7.82;;;3.50;;
79015;SDS011;72726;44.842;37.556;2023-09-19T05:29:55;8.07;;;3.10;;
79015;SDS011;72726;44.842;37.556;2023-09-19T05:31:02;11.20;;;3.53;;
79015;SDS011;72726;44.842;37.556;2023-09-19T05:32:03;6.95;;;3.05;;
79015;SDS011;72726;44.842;37.556;2023-09-19T05:33:06;6.47;;;3.35;;
79015;SDS011;72726;44.842;37.556;2023-09-19T05:34:08;6.20;;;2.92;;
79015;SDS011;72726;44.842;37.556;2023-09-19T05:35:09;8.27;;;3.28;;
79015;SDS011;72726;44.842;37.556;2023-09-19T05:36:11;6.93;;;3.17;;
79015;SDS011;72726;44.842;37.556;2023-09-19T05:37:12;6.82;;;3.20;;
79015;SDS011;72726;44.842;37.556;2023-09-19T05:39:20;6.72;;;2.88;;
79015;SDS011;72726;44.842;37.556;2023-09-19T05:40:21;5.97;;;2.90;;
79015;SDS011;72726;44.842;37.556;2023-09-19T05:41:23;6.40;;;3.08;;
79015;SDS011;72726;44.842;37.556;2023-09-19T05:42:24;6.30;;;3.15;;
79015;SDS011;72726;44.842;37.556;2023-09-19T05:43:25;7.20;;;3.38;;
79015;SDS011;72726;44.842;37.556;2023-09-19T05:44:27;12.82;;;3.58;;
79015;SDS011;72726;44.842;37.556;2023-09-19T05:45:28;8.23;;;3.40;;
79015;SDS011;72726;44.842;37.556;2023-09-19T05:46:29;8.07;;;3.22;;
79015;SDS011;72726;44.842;37.556;2023-09-19T05:47:30;7.47;;;3.15;;
79015;SDS011;72726;44.842;37.556;2023-09-19T05:48:31;9.02;;;3.30;;
79015;SDS011;72726;44.842;37.556;2023-09-19T05:49:33;6.28;;;2.60;;
79015;SDS011;72726;44.842;37.556;2023-09-19T05:50:34;6.10;;;2.47;;
79015;SDS011;72726;44.842;37.556;2023-09-19T05:51:37;7.07;;;2.63;;
79015;SDS011;72726;44.842;37.556;2023-09-19T05:52:38;6.50;;;3.22;;
79015;SDS011;72726;44.842;37.556;2023-09-19T05:53:39;6.40;;;2.90;;
79015;SDS011;72726;44.842;37.556;2023-09-19T05:54:44;5.40;;;2.95;;
79015;SDS011;72726;44.842;37.556;2023-09-19T05:55:45;7.05;;;2.97;;
79015;SDS011;72726;44.842;37.556;2023-09-19T05:56:46;6.30;;;2.83;;
79015;SDS011;72726;44.842;37.556;2023-09-19T05:57:49;6.13;;;3.20;;
79015;SDS011;72726;44.842;37.556;2023-09-19T05:58:52;6.97;;;2.88;;
79015;SDS011;72726;44.842;37.556;2023-09-19T05:59:53;5.93;;;3.20;;
79015;SDS011;72726;44.842;37.556;2023-09-19T06:00:55;5.97;;;2.55;;
79015;SDS011;72726;44.842;37.556;2023-09-19T06:01:58;7.13;;;3.10;;
79015;SDS011;72726;44.842;37.556;2023-09-19T06:03:00;7.30;;;2.97;;
79015;SDS011;72726;44.842;37.556;2023-09-19T06:04:01;6.22;;;2.88;;
79015;SDS011;72726;44.842;37.556;2023-09-19T06:05:06;7.95;;;2.90;;
79015;SDS011;72726;44.842;37.556;2023-09-19T06:06:11;7.85;;;2.30;;
79015;SDS011;72726;44.842;37.556;2023-09-19T06:07:12;8.48;;;2.50;;
79015;SDS011;72726;44.842;37.556;2023-09-19T06:08:14;8.48;;;3.10;;
79015;SDS011;72726;44.842;37.556;2023-09-19T06:09:15;6.25;;;2.67;;
79015;SDS011;72726;44.842;37.556;2023-09-19T06:10:16;8.20;;;3.00;;
79015;SDS011;72726;44.842;37.556;2023-09-19T06:11:18;6.32;;;2.95;;
79015;SDS011;72726;44.842;37.556;2023-09-19T06:12:21;5.80;;;3.08;;
79015;SDS011;72726;44.842;37.556;2023-09-19T06:13:22;8.23;;;3.35;;
79015;SDS011;72726;44.842;37.556;2023-09-19T06:14:24;5.63;;;3.10;;
79015;SDS011;72726;44.842;37.556;2023-09-19T06:15:25;5.75;;;2.70;;
79015;SDS011;72726;44.842;37.556;2023-09-19T06:16:28;9.38;;;2.80;;
79015;SDS011;72726;44.842;37.556;2023-09-19T06:17:29;8.02;;;2.72;;
79015;SDS011;72726;44.842;37.556;2023-09-19T06:18:32;4.53;;;2.30;;
79015;SDS011;72726;44.842;37.556;2023-09-19T06:19:34;6.80;;;2.70;;
79015;SDS011;72726;44.842;37.556;2023-09-19T06:20:35;8.25;;;2.67;;
79015;SDS011;72726;44.842;37.556;2023-09-19T06:21:36;5.88;;;2.55;;
79015;SDS011;72726;44.842;37.556;2023-09-19T06:22:38;5.63;;;2.25;;
79015;SDS011;72726;44.842;37.556;2023-09-19T06:23:42;5.32;;;2.83;;
79015;SDS011;72726;44.842;37.556;2023-09-19T06:24:44;4.70;;;2.28;;
79015;SDS011;72726;44.842;37.556;2023-09-19T06:25:47;6.93;;;3.10;;
79015;SDS011;72726;44.842;37.556;2023-09-19T06:26:49;6.03;;;2.63;;
79015;SDS011;72726;44.842;37.556;2023-09-19T06:27:51;5.97;;;2.95;;
79015;SDS011;72726;44.842;37.556;2023-09-19T06:28:54;9.05;;;2.83;;